createdAt,value
2023-03-15T00:03:00.284Z,6.78
2023-03-15T00:08:04.375Z,7.57
2023-03-15T00:13:06.070Z,8.05
2023-03-15T00:18:07.511Z,8.98
2023-03-15T00:23:09.547Z,10.45
2023-03-15T00:28:11.530Z,7.82
2023-03-15T00:33:14.317Z,9.48
2023-03-15T00:38:15.746Z,7.70
2023-03-15T00:43:17.910Z,8.30
2023-03-15T00:48:19.392Z,7.30
2023-03-15T00:53:22.560Z,8.77
2023-03-15T00:58:26.438Z,7.60
2023-03-15T01:03:29.057Z,6.20
2023-03-15T01:08:31.338Z,6.40
2023-03-15T01:13:33.433Z,5.93
2023-03-15T01:18:34.981Z,5.93
2023-03-15T01:23:36.594Z,5.20
2023-03-15T01:28:38.369Z,6.18
2023-03-15T01:33:39.873Z,9.27
2023-03-15T01:38:41.770Z,6.45
2023-03-15T01:43:52.140Z,10.75
2023-03-15T01:49:05.457Z,6.18
2023-03-15T01:54:13.327Z,5.80
2023-03-15T01:59:25.685Z,6.07
2023-03-15T02:04:36.431Z,6.35
2023-03-15T02:09:49.606Z,7.50
2023-03-15T02:14:52.099Z,3.90
2023-03-15T02:20:27.820Z,5.72
2023-03-15T02:25:42.430Z,4.13
2023-03-15T02:30:45.941Z,7.28
2023-03-15T02:35:47.494Z,10.10
2023-03-15T02:40:51.438Z,6.25
2023-03-15T02:45:53.081Z,7.53
2023-03-15T02:50:54.595Z,4.90
2023-03-15T02:55:56.632Z,8.52
2023-03-15T03:00:58.082Z,7.43
2023-03-15T03:06:02.202Z,6.40
2023-03-15T03:11:03.878Z,4.07
2023-03-15T03:16:05.733Z,7.47
2023-03-15T03:21:08.364Z,6.45
2023-03-15T03:26:18.872Z,7.40
2023-03-15T03:31:23.254Z,4.65
2023-03-15T03:36:25.055Z,9.10
2023-03-15T03:41:26.562Z,7.05
2023-03-15T03:46:28.529Z,6.88
2023-03-15T03:51:30.748Z,8.77
2023-03-15T03:56:32.210Z,8.02
2023-03-15T04:01:33.719Z,7.15
2023-03-15T04:06:35.471Z,5.55
2023-03-15T04:11:36.900Z,7.25
2023-03-15T04:16:38.842Z,7.55
2023-03-15T04:21:47.062Z,10.27
2023-03-15T04:26:48.523Z,7.65
2023-03-15T04:31:49.943Z,9.55
2023-03-15T04:36:54.679Z,4.72
2023-03-15T04:41:56.212Z,5.45
2023-03-15T04:46:58.314Z,8.65
2023-03-15T04:51:59.793Z,4.53
2023-03-15T04:57:02.639Z,7.32
2023-03-15T05:02:04.245Z,4.50
2023-03-15T05:07:05.711Z,9.70
2023-03-15T05:12:07.631Z,8.57
2023-03-15T05:17:09.060Z,7.15
2023-03-15T05:22:10.510Z,7.85
2023-03-15T05:27:13.569Z,13.32
2023-03-15T05:32:15.075Z,11.20
2023-03-15T05:37:16.479Z,7.30
2023-03-15T05:42:22.142Z,9.32
2023-03-15T05:47:23.737Z,8.50
2023-03-15T05:52:26.368Z,12.38
2023-03-15T05:57:27.814Z,7.30
2023-03-15T06:02:29.214Z,10.68
2023-03-15T06:07:30.664Z,5.78
2023-03-15T06:12:32.099Z,9.38
2023-03-15T06:17:33.660Z,3.60
2023-03-15T06:22:35.159Z,9.45
2023-03-15T06:27:37.733Z,8.35
2023-03-15T06:32:39.224Z,8.45
2023-03-15T06:37:41.897Z,8.90
2023-03-15T06:42:43.320Z,6.90
2023-03-15T06:47:44.767Z,8.05
2023-03-15T06:52:46.246Z,6.38
2023-03-15T06:57:47.702Z,5.35
2023-03-15T07:02:49.314Z,10.55
2023-03-15T07:07:50.781Z,3.92
2023-03-15T07:12:52.216Z,11.52
2023-03-15T07:17:53.705Z,8.48
2023-03-15T07:22:55.165Z,5.28
2023-03-15T07:27:56.636Z,10.70
2023-03-15T07:32:58.176Z,4.25
2023-03-15T07:37:59.888Z,7.38
2023-03-15T07:43:01.346Z,5.63
2023-03-15T07:48:03.050Z,10.15
2023-03-15T07:53:05.513Z,10.98
2023-03-15T07:58:07.023Z,8.50
2023-03-15T08:03:08.621Z,7.60
2023-03-15T08:08:10.117Z,8.10
2023-03-15T08:13:12.304Z,8.00
2023-03-15T08:18:14.610Z,3.17
2023-03-15T08:23:16.731Z,7.30
2023-03-15T08:28:18.288Z,4.97
2023-03-15T08:33:19.760Z,5.63
2023-03-15T08:38:21.189Z,8.55
2023-03-15T08:43:22.775Z,6.05
2023-03-15T08:48:24.263Z,4.43
2023-03-15T08:53:25.706Z,8.05
2023-03-15T08:58:27.579Z,6.95
2023-03-15T09:03:29.019Z,3.78
2023-03-15T09:08:33.249Z,6.50
2023-03-15T09:13:34.768Z,10.77
2023-03-15T09:18:36.256Z,9.00
2023-03-15T09:23:37.712Z,7.93
2023-03-15T09:28:39.149Z,11.00
2023-03-15T09:33:40.766Z,6.15
2023-03-15T09:38:43.797Z,7.20
2023-03-15T09:44:09.242Z,7.72
2023-03-15T09:49:49.329Z,7.20
2023-03-15T09:54:54.275Z,5.15
2023-03-15T09:59:57.826Z,8.70
2023-03-15T10:05:23.180Z,6.97
2023-03-15T10:10:31.454Z,4.72
2023-03-15T10:15:47.388Z,5.93
2023-03-15T10:20:57.536Z,3.97
2023-03-15T10:25:59.746Z,9.07
2023-03-15T10:31:09.584Z,8.57
2023-03-15T10:36:18.238Z,4.53
2023-03-15T10:41:37.405Z,6.13
2023-03-15T10:46:38.936Z,6.35
2023-03-15T10:51:46.354Z,4.07
2023-03-15T10:56:51.945Z,4.05
2023-03-15T11:02:08.074Z,6.78
2023-03-15T11:07:10.649Z,4.43
2023-03-15T11:12:28.336Z,5.78
2023-03-15T11:17:35.873Z,5.75
2023-03-15T11:22:37.280Z,4.75
2023-03-15T11:27:38.792Z,5.38
2023-03-15T11:32:41.856Z,3.47
2023-03-15T11:38:13.014Z,3.20
2023-03-15T11:43:25.149Z,5.60
2023-03-15T11:48:55.837Z,3.80
2023-03-15T11:54:07.720Z,3.97
2023-03-15T11:59:13.779Z,6.07
2023-03-15T12:04:35.481Z,6.55
2023-03-15T12:09:36.836Z,3.40
2023-03-15T12:14:38.525Z,4.82
2023-03-15T12:19:40.585Z,5.80
2023-03-15T12:24:46.775Z,1.85
2023-03-15T12:29:58.448Z,4.38
2023-03-15T12:35:17.659Z,5.00
2023-03-15T12:40:20.227Z,2.10
2023-03-15T12:45:36.983Z,4.07
2023-03-15T12:50:44.932Z,4.25
2023-03-15T12:55:47.531Z,3.45
2023-03-15T13:00:53.039Z,4.43
2023-03-15T13:06:22.198Z,6.78
2023-03-15T13:11:35.862Z,8.27
2023-03-15T13:16:46.267Z,5.22
2023-03-15T13:22:12.391Z,3.78
2023-03-15T13:27:47.567Z,2.38
2023-03-15T13:32:49.065Z,5.65
2023-03-15T13:37:50.683Z,6.85
2023-03-15T13:42:52.173Z,5.05
2023-03-15T13:47:53.603Z,3.38
2023-03-15T13:52:56.425Z,2.08
2023-03-15T13:58:00.117Z,5.80
2023-03-15T14:03:07.290Z,4.72
2023-03-15T14:08:22.027Z,7.25
2023-03-15T14:13:29.534Z,6.47
2023-03-15T14:18:34.918Z,7.13
2023-03-15T14:23:41.491Z,6.13
2023-03-15T14:28:48.317Z,4.53
2023-03-15T14:33:56.891Z,6.60
2023-03-15T14:38:59.708Z,3.93
2023-03-15T14:44:02.993Z,3.70
2023-03-15T14:49:04.542Z,4.75
2023-03-15T14:54:06.587Z,5.97
2023-03-15T14:59:13.905Z,7.07
2023-03-15T15:04:16.972Z,6.10
2023-03-15T15:09:22.755Z,7.00
2023-03-15T15:14:24.253Z,6.80
2023-03-15T15:19:26.052Z,5.50
2023-03-15T15:24:27.607Z,7.43
2023-03-15T15:29:29.552Z,5.68
2023-03-15T15:34:34.073Z,5.43
2023-03-15T15:39:35.521Z,4.00
2023-03-15T15:44:36.926Z,5.25
2023-03-15T15:49:40.384Z,8.57
2023-03-15T15:54:43.244Z,6.20
2023-03-15T15:59:44.784Z,5.25
2023-03-15T16:04:46.242Z,8.32
2023-03-15T16:09:49.741Z,6.03
2023-03-15T16:14:51.575Z,4.18
2023-03-15T16:19:54.238Z,5.38
2023-03-15T16:24:57.974Z,6.70
2023-03-15T16:29:59.459Z,3.25
2023-03-15T16:35:01.420Z,10.02
2023-03-15T16:40:09.886Z,8.10
2023-03-15T16:45:13.479Z,6.93
2023-03-15T16:50:15.582Z,6.35
2023-03-15T16:55:22.181Z,7.10
2023-03-15T17:00:24.608Z,9.98
2023-03-15T17:05:26.687Z,15.63
2023-03-15T17:10:31.034Z,14.98
2023-03-15T17:15:32.527Z,9.63
2023-03-15T17:20:34.160Z,9.90
2023-03-15T17:25:35.649Z,9.98
2023-03-15T17:30:37.659Z,8.60
2023-03-15T17:35:50.641Z,9.43
2023-03-15T17:40:53.464Z,7.65
2023-03-15T17:45:54.948Z,8.05
2023-03-15T17:50:56.404Z,8.85
2023-03-15T17:55:57.842Z,13.68
2023-03-15T18:00:59.544Z,8.55
2023-03-15T18:06:05.150Z,9.85
2023-03-15T18:11:42.640Z,6.93
2023-03-15T18:16:45.289Z,8.68
2023-03-15T18:21:46.785Z,9.63
2023-03-15T18:26:48.209Z,10.15
2023-03-15T18:31:49.704Z,8.27
2023-03-15T18:36:51.524Z,10.90
2023-03-15T18:41:52.961Z,8.38
2023-03-15T18:46:54.445Z,12.05
2023-03-15T18:51:56.609Z,9.98
2023-03-15T18:56:58.067Z,12.57
2023-03-15T19:01:59.750Z,12.85
2023-03-15T19:07:01.223Z,15.05
2023-03-15T19:12:03.132Z,17.77
2023-03-15T19:17:04.733Z,16.13
2023-03-15T19:22:06.330Z,16.05
2023-03-15T19:27:07.793Z,28.13
2023-03-15T19:32:09.289Z,16.80
2023-03-15T19:37:10.722Z,19.70
2023-03-15T19:42:12.161Z,20.27
2023-03-15T19:47:13.576Z,21.02
2023-03-15T19:52:16.026Z,19.50
2023-03-15T19:57:17.629Z,21.55
2023-03-15T20:02:19.219Z,21.83
2023-03-15T20:07:20.647Z,21.77
2023-03-15T20:12:22.134Z,20.30
2023-03-15T20:17:23.681Z,28.33
2023-03-15T20:22:25.112Z,22.02
2023-03-15T20:27:26.691Z,23.48
2023-03-15T20:32:28.555Z,24.33
2023-03-15T20:37:30.935Z,27.30
2023-03-15T20:42:32.374Z,23.48
2023-03-15T20:47:34.319Z,25.52
2023-03-15T20:52:35.768Z,24.02
2023-03-15T20:57:37.387Z,24.65
2023-03-15T21:02:40.343Z,25.05
2023-03-15T21:07:42.590Z,26.33
2023-03-15T21:12:44.344Z,25.25
2023-03-15T21:17:49.083Z,28.00
2023-03-15T21:22:51.400Z,33.85
2023-03-15T21:27:52.820Z,36.50
2023-03-15T21:32:54.293Z,34.47
2023-03-15T21:37:55.781Z,32.97
2023-03-15T21:42:57.191Z,36.50
2023-03-15T21:47:58.621Z,33.92
2023-03-15T21:53:00.095Z,31.08
2023-03-15T21:58:02.199Z,33.38
2023-03-15T22:03:04.780Z,34.60
2023-03-15T22:08:06.496Z,35.25
2023-03-15T22:13:07.989Z,33.40
2023-03-15T22:18:09.478Z,30.67
2023-03-15T22:23:11.210Z,32.88
2023-03-15T22:28:12.951Z,32.40
2023-03-15T22:33:15.544Z,42.53
2023-03-15T22:38:16.982Z,32.55
2023-03-15T22:43:18.447Z,29.92
2023-03-15T22:48:19.890Z,33.67
2023-03-15T22:53:21.321Z,33.05
2023-03-15T22:58:23.233Z,32.35
2023-03-15T23:03:26.254Z,32.33
2023-03-15T23:08:27.850Z,33.72
2023-03-15T23:13:29.384Z,32.30
2023-03-15T23:18:34.350Z,29.52
2023-03-15T23:23:36.270Z,35.22
2023-03-15T23:28:37.686Z,45.25
2023-03-15T23:33:39.095Z,44.70
2023-03-15T23:38:40.883Z,43.90
2023-03-15T23:43:42.341Z,47.97
2023-03-15T23:48:43.778Z,40.40
2023-03-15T23:53:45.301Z,35.60
2023-03-15T23:58:46.747Z,32.22
